San Juan Community, Texas
Current Conditions -  °F | °C
As of 4:53 PM on Tuesday 21 Oct 2014 (Local Time) from KMFE Reporting Station
Light Rain Light Rain  
Wind Chill: 73°   Ceiling: 9500
Heat Index: 73°   Visibility: 7mi
Dew Point: 71°   Wind: 5mph
Humidity: 93%   Direction: 90°E
Pressure: 29.91"   Gusts: NA
Location:  26.2938°N, 98.1548°W
Report Text: KMFE 212153Z 09004KT 7SM -RA FEW021 OVC095 23/22 A2991 RMK AO2 RAB04 SLP128 P0000 T02280217
Loading
Personal Weather Stations






























Interactive Weather Map
Tropical Storm Tracking
New forecast layout! Learn more

10-Day Weather Forecast

Advertisements
Track Severe Weather on mobile